createdAt,value
2022-09-14T00:04:59.296Z,4.63
2022-09-14T00:10:04.822Z,8.48
2022-09-14T00:15:07.852Z,8.02
2022-09-14T00:20:10.392Z,9.68
2022-09-14T00:25:12.675Z,7.22
2022-09-14T00:30:15.070Z,3.70
2022-09-14T00:35:18.504Z,3.72
2022-09-14T00:40:22.721Z,6.45
2022-09-14T00:45:26.418Z,5.57
2022-09-14T00:50:29.690Z,8.00
2022-09-14T00:55:33.307Z,16.58
2022-09-14T01:00:35.577Z,5.03
2022-09-14T01:05:58.458Z,5.05
2022-09-14T01:11:24.478Z,6.18
2022-09-14T01:16:47.204Z,5.82
2022-09-14T01:21:52.467Z,5.60
2022-09-14T01:27:19.782Z,6.00
2022-09-14T01:32:28.823Z,4.05
2022-09-14T01:38:04.536Z,7.28
2022-09-14T01:43:23.767Z,9.88
2022-09-14T01:48:36.946Z,4.45
2022-09-14T01:53:54.963Z,6.18
2022-09-14T01:59:05.721Z,7.35
2022-09-14T02:04:15.227Z,8.50
2022-09-14T02:09:22.795Z,9.45
2022-09-14T02:14:35.372Z,9.20
2022-09-14T02:19:55.924Z,5.90
2022-09-14T02:25:00.900Z,4.13
2022-09-14T02:30:04.353Z,5.53
2022-09-14T02:35:19.462Z,6.00
2022-09-14T02:40:44.310Z,4.38
2022-09-14T02:46:37.451Z,5.70
2022-09-14T02:57:31.794Z,16.52
2022-09-14T03:02:38.780Z,12.70
2022-09-14T03:07:48.502Z,20.38
2022-09-14T03:17:55.138Z,17.30
2022-09-14T03:22:59.210Z,22.63
2022-09-14T03:28:01.952Z,19.73
2022-09-14T03:33:05.501Z,15.05
2022-09-14T03:38:17.457Z,18.92
2022-09-14T03:49:28.908Z,18.65
2022-09-14T03:54:35.459Z,19.27
2022-09-14T03:59:43.482Z,9.00
2022-09-14T04:04:48.561Z,13.15
2022-09-14T04:09:51.022Z,12.02
2022-09-14T04:14:53.742Z,13.57
2022-09-14T04:19:56.873Z,14.93
2022-09-14T04:25:05.201Z,19.17
2022-09-14T04:35:21.372Z,14.00
2022-09-14T04:40:33.083Z,13.88
2022-09-14T04:45:38.068Z,12.63
2022-09-14T04:50:44.089Z,10.20
2022-09-14T04:55:54.271Z,11.32
2022-09-14T05:06:25.016Z,10.70
2022-09-14T05:11:35.898Z,9.27
2022-09-14T05:16:50.270Z,9.65
2022-09-14T05:22:00.304Z,7.47
2022-09-14T05:33:21.263Z,5.63
2022-09-14T05:38:34.168Z,3.78
2022-09-14T05:43:44.288Z,4.70
2022-09-14T05:48:54.875Z,6.15
2022-09-14T05:54:00.119Z,5.43
2022-09-14T05:59:05.208Z,5.00
2022-09-14T06:04:17.147Z,4.75
2022-09-14T06:09:21.438Z,8.15
2022-09-14T06:14:24.551Z,8.70
2022-09-14T06:20:04.031Z,6.68
2022-09-14T06:25:12.780Z,6.55
2022-09-14T06:30:19.425Z,7.60
2022-09-14T06:35:24.704Z,7.82
2022-09-14T06:40:28.364Z,10.40
2022-09-14T06:45:32.560Z,5.35
2022-09-14T06:50:35.161Z,8.23
2022-09-14T06:55:37.632Z,5.40
2022-09-14T07:00:40.042Z,8.75
2022-09-14T07:05:43.563Z,6.22
2022-09-14T07:10:56.324Z,6.88
2022-09-14T07:15:59.154Z,7.35
2022-09-14T07:21:06.587Z,10.63
2022-09-14T07:26:21.230Z,10.68
2022-09-14T07:31:28.880Z,9.95
2022-09-14T07:36:35.070Z,10.32
2022-09-14T07:41:38.142Z,8.15
2022-09-14T07:46:43.526Z,6.60
2022-09-14T07:51:46.714Z,5.20
2022-09-14T07:56:50.824Z,13.60
2022-09-14T08:01:53.620Z,11.23
2022-09-14T08:06:56.438Z,5.25
2022-09-14T08:11:58.729Z,15.95
2022-09-14T08:17:01.117Z,5.15
2022-09-14T08:22:04.991Z,7.65
2022-09-14T08:27:07.229Z,3.95
2022-09-14T08:32:14.956Z,10.63
2022-09-14T08:37:17.447Z,5.43
2022-09-14T08:42:25.130Z,5.85
2022-09-14T08:47:35.296Z,4.97
2022-09-14T08:52:49.502Z,4.47
2022-09-14T08:58:03.055Z,5.43
2022-09-14T09:03:38.224Z,9.90
2022-09-14T09:09:06.707Z,7.72
2022-09-14T09:14:19.282Z,8.93
2022-09-14T09:19:31.045Z,7.38
2022-09-14T09:24:40.890Z,10.55
2022-09-14T09:29:44.107Z,11.55
2022-09-14T09:34:47.188Z,7.68
2022-09-14T09:40:04.080Z,9.25
2022-09-14T09:45:07.218Z,6.55
2022-09-14T09:50:15.397Z,8.77
2022-09-14T09:55:29.610Z,6.55
2022-09-14T10:00:36.623Z,5.57
2022-09-14T10:05:39.204Z,3.63
2022-09-14T10:10:46.528Z,6.15
2022-09-14T10:15:52.053Z,3.05
2022-09-14T10:21:00.968Z,4.03
2022-09-14T10:26:13.904Z,3.92
2022-09-14T10:31:18.446Z,7.15
2022-09-14T10:36:44.286Z,5.53
2022-09-14T10:41:56.020Z,6.57
2022-09-14T10:47:18.363Z,7.15
2022-09-14T10:52:30.221Z,8.27
2022-09-14T10:57:53.016Z,14.50
2022-09-14T11:03:04.681Z,9.00
2022-09-14T11:08:33.464Z,15.55
2022-09-14T11:13:58.309Z,39.08
2022-09-14T11:19:13.100Z,36.63
2022-09-14T11:24:45.034Z,34.38
2022-09-14T11:29:53.158Z,48.10
2022-09-14T11:35:17.649Z,50.53
2022-09-14T11:40:54.958Z,71.57
2022-09-14T11:46:06.266Z,40.70
2022-09-14T11:51:32.638Z,34.03
2022-09-14T11:56:35.339Z,23.25
2022-09-14T12:01:39.774Z,31.90
2022-09-14T12:06:45.358Z,26.27
2022-09-14T12:11:57.304Z,30.50
2022-09-14T12:22:40.035Z,26.25
2022-09-14T12:27:44.331Z,30.83
2022-09-14T12:32:46.672Z,27.95
2022-09-14T12:37:49.051Z,28.45
2022-09-14T12:42:51.385Z,26.45
2022-09-14T12:47:53.768Z,31.10
2022-09-14T12:53:04.375Z,33.08
2022-09-14T12:58:39.063Z,15.95
2022-09-14T13:03:50.703Z,26.45
2022-09-14T13:08:59.874Z,12.18
2022-09-14T13:19:25.468Z,9.55
2022-09-14T13:24:32.185Z,8.32
2022-09-14T13:36:05.908Z,8.00
2022-09-14T13:41:26.282Z,10.23
2022-09-14T14:25:13.742Z,9.63
2022-09-14T14:56:56.023Z,6.30
2022-09-14T15:02:31.144Z,14.80
2022-09-14T15:08:21.552Z,10.82
2022-09-14T15:13:55.080Z,8.45
2022-09-14T15:19:02.838Z,11.80
2022-09-14T15:30:07.115Z,10.57
2022-09-14T15:35:40.171Z,9.52
2022-09-14T15:40:53.334Z,7.28
2022-09-14T15:46:13.167Z,12.88
2022-09-14T15:51:19.881Z,8.38
2022-09-14T16:08:13.622Z,13.38
2022-09-14T16:13:46.777Z,17.25
2022-09-14T16:30:41.244Z,15.43
2022-09-14T16:35:58.293Z,19.23
2022-09-14T16:41:01.973Z,19.15
2022-09-14T16:46:13.894Z,26.50
2022-09-14T16:51:18.452Z,17.52
2022-09-14T16:56:26.384Z,12.02
2022-09-14T17:01:34.316Z,21.13
2022-09-14T17:06:39.587Z,12.82
2022-09-14T17:11:42.864Z,15.65
2022-09-14T17:16:46.074Z,17.58
2022-09-14T17:21:49.185Z,23.83
2022-09-14T17:26:53.030Z,11.63
2022-09-14T17:31:58.283Z,8.77
2022-09-14T17:37:24.781Z,11.63
2022-09-14T17:42:31.559Z,9.65
2022-09-14T17:47:35.961Z,7.85
2022-09-14T17:52:38.323Z,9.23
2022-09-14T17:57:42.445Z,11.18
2022-09-14T18:02:49.800Z,16.30
2022-09-14T18:07:52.168Z,17.80
2022-09-14T18:12:55.063Z,14.70
2022-09-14T18:17:57.385Z,13.10
2022-09-14T18:23:00.089Z,15.02
2022-09-14T18:28:02.785Z,16.40
2022-09-14T18:33:05.486Z,8.63
2022-09-14T18:38:07.935Z,9.23
2022-09-14T18:43:11.026Z,22.38
2022-09-14T18:48:14.775Z,8.82
2022-09-14T18:53:18.043Z,10.18
2022-09-14T18:58:20.518Z,11.80
2022-09-14T19:03:22.913Z,14.88
2022-09-14T19:08:25.765Z,6.68
2022-09-14T19:13:28.397Z,8.98
2022-09-14T19:18:31.243Z,6.28
2022-09-14T19:23:33.687Z,8.50
2022-09-14T19:28:36.732Z,7.82
2022-09-14T19:33:45.099Z,6.05
2022-09-14T19:38:50.922Z,4.97
2022-09-14T19:43:53.610Z,5.43
2022-09-14T19:48:56.102Z,11.05
2022-09-14T19:54:00.601Z,5.07
2022-09-14T19:59:04.691Z,10.38
2022-09-14T20:04:07.805Z,12.35
2022-09-14T20:09:13.078Z,5.60
2022-09-14T20:14:20.901Z,6.07
2022-09-14T20:19:25.960Z,10.05
2022-09-14T20:24:31.140Z,10.20
2022-09-14T20:29:35.480Z,7.35
2022-09-14T20:34:37.763Z,4.90
2022-09-14T20:39:40.000Z,3.53
2022-09-14T20:44:42.182Z,4.88
2022-09-14T20:49:44.983Z,6.00
2022-09-14T20:54:47.322Z,5.05
2022-09-14T20:59:49.934Z,7.88
2022-09-14T21:04:52.494Z,4.40
2022-09-14T21:09:55.241Z,8.43
2022-09-14T21:14:57.735Z,8.95
2022-09-14T21:20:00.064Z,10.27
2022-09-14T21:25:02.411Z,10.02
2022-09-14T21:30:05.237Z,5.30
2022-09-14T21:35:07.883Z,5.40
2022-09-14T21:40:10.775Z,7.32
2022-09-14T21:45:13.097Z,2.97
2022-09-14T21:50:15.848Z,5.22
2022-09-14T21:55:19.233Z,3.08
2022-09-14T22:00:21.599Z,5.68
2022-09-14T22:05:23.886Z,2.30
2022-09-14T22:10:27.062Z,5.57
2022-09-14T22:15:32.010Z,6.30
2022-09-14T22:20:34.434Z,9.77
2022-09-14T22:25:40.190Z,11.88
2022-09-14T22:30:46.872Z,15.07
2022-09-14T22:35:57.535Z,13.30
2022-09-14T22:41:05.906Z,14.70
2022-09-14T22:46:09.112Z,20.33
2022-09-14T22:51:15.197Z,18.83
2022-09-14T22:56:18.834Z,18.27
2022-09-14T23:01:30.092Z,19.58
2022-09-14T23:06:36.863Z,14.20
2022-09-14T23:11:39.258Z,14.15
2022-09-14T23:16:42.659Z,13.98
2022-09-14T23:21:45.563Z,15.95
2022-09-14T23:26:47.896Z,13.23
2022-09-14T23:31:50.235Z,13.65
2022-09-14T23:36:52.517Z,20.55
2022-09-14T23:41:55.018Z,19.67
2022-09-14T23:46:57.305Z,16.52
2022-09-14T23:51:59.541Z,16.27
2022-09-14T23:57:01.873Z,22.30
